createdAt,value
2022-11-05T00:00:59.305Z,18.20
2022-11-05T00:03:26.340Z,20.20
2022-11-05T00:05:54.061Z,16.65
2022-11-05T00:08:20.870Z,19.02
2022-11-05T00:10:47.755Z,19.25
2022-11-05T00:11:07.288Z,0
2022-11-05T00:16:02.037Z,20.10
2022-11-05T00:18:28.960Z,28.45
2022-11-05T00:20:55.687Z,16.95
2022-11-05T00:23:22.640Z,21.33
2022-11-05T00:28:47.547Z,21.73
2022-11-05T00:34:01.199Z,18.48
2022-11-05T00:38:54.557Z,17.38
2022-11-05T00:41:21.589Z,18.33
2022-11-05T00:46:34.985Z,22.83
2022-11-05T00:49:01.719Z,19.65
2022-11-05T00:51:28.484Z,20.85
2022-11-05T00:53:55.231Z,19.75
2022-11-05T00:56:21.949Z,21.58
2022-11-05T00:58:48.696Z,22.00
2022-11-05T01:01:15.629Z,19.98
2022-11-05T01:03:45.147Z,23.25
2022-11-05T01:06:17.028Z,23.05
2022-11-05T01:08:45.440Z,19.15
2022-11-05T01:11:14.618Z,22.88
2022-11-05T01:13:41.347Z,22.55
2022-11-05T01:16:09.920Z,22.83
2022-11-05T01:21:12.771Z,23.23
2022-11-05T01:23:39.542Z,24.25
2022-11-05T01:28:57.843Z,24.77
2022-11-05T01:31:24.720Z,27.02
2022-11-05T01:33:51.469Z,23.73
2022-11-05T01:36:18.594Z,21.55
2022-11-05T01:38:45.548Z,33.80
2022-11-05T01:41:12.255Z,22.83
2022-11-05T01:46:46.023Z,24.77
2022-11-05T01:49:17.621Z,22.67
2022-11-05T01:51:45.818Z,24.42
2022-11-05T01:54:17.117Z,25.23
2022-11-05T01:56:51.351Z,24.27
2022-11-05T01:59:25.466Z,25.85
2022-11-05T02:04:45.343Z,27.80
2022-11-05T02:07:12.778Z,25.23
2022-11-05T02:09:54.510Z,24.67
2022-11-05T02:15:15.766Z,27.90
2022-11-05T02:17:51.393Z,35.03
2022-11-05T02:20:53.786Z,0
2022-11-05T02:21:11.689Z,26.77
2022-11-05T02:27:20.176Z,38.30
2022-11-05T02:33:41.702Z,31.55
2022-11-05T02:36:27.168Z,32.75
2022-11-05T02:39:08.721Z,26.75
2022-11-05T02:42:05.925Z,0
2022-11-05T02:45:10.420Z,28.25
2022-11-05T02:48:02.612Z,27.57
2022-11-05T02:50:39.793Z,28.58
2022-11-05T02:53:19.236Z,34.45
2022-11-05T02:56:00.984Z,32.25
2022-11-05T02:58:28.886Z,38.95
2022-11-05T03:00:57.059Z,30.70
2022-11-05T03:03:33.296Z,33.10
2022-11-05T03:06:16.550Z,40.70
2022-11-05T03:09:18.248Z,35.92
2022-11-05T03:12:10.296Z,36.67
2022-11-05T03:15:01.876Z,38.17
2022-11-05T03:17:36.670Z,40.28
2022-11-05T03:22:41.705Z,42.35
2022-11-05T03:28:10.902Z,49.47
2022-11-05T03:33:30.948Z,43.58
2022-11-05T03:36:03.283Z,41.58
2022-11-05T03:38:35.203Z,41.05
2022-11-05T03:43:58.638Z,54.65
2022-11-05T03:49:21.359Z,42.70
2022-11-05T03:51:58.878Z,39.90
2022-11-05T03:54:25.919Z,44.95
2022-11-05T03:57:01.221Z,40.90
2022-11-05T03:59:30.327Z,51.05
2022-11-05T04:01:57.898Z,34.25
2022-11-05T04:07:12.232Z,37.95
2022-11-05T04:12:25.563Z,46.80
2022-11-05T04:14:52.257Z,37.53
2022-11-05T04:17:18.995Z,36.22
2022-11-05T04:19:46.008Z,35.45
2022-11-05T04:22:12.783Z,37.28
2022-11-05T04:24:39.502Z,36.13
2022-11-05T04:27:06.235Z,36.47
2022-11-05T04:29:32.916Z,44.38
2022-11-05T04:31:59.630Z,35.55
2022-11-05T04:34:26.364Z,30.77
2022-11-05T04:36:53.444Z,28.40
2022-11-05T04:39:20.953Z,31.90
2022-11-05T04:41:48.021Z,30.05
2022-11-05T04:44:15.955Z,30.77
2022-11-05T04:46:42.767Z,36.05
2022-11-05T04:49:09.529Z,32.03
2022-11-05T04:51:36.257Z,38.85
2022-11-05T04:54:02.976Z,31.20
2022-11-05T04:56:29.707Z,36.47
2022-11-05T04:58:56.419Z,39.50
2022-11-05T05:01:24.060Z,39.80
2022-11-05T05:03:52.194Z,34.13
2022-11-05T05:06:19.653Z,34.13
2022-11-05T05:08:50.553Z,35.43
2022-11-05T05:11:19.927Z,37.58
2022-11-05T05:13:47.474Z,34.87
2022-11-05T05:16:20.633Z,31.80
2022-11-05T05:18:47.987Z,29.55
2022-11-05T05:24:03.294Z,32.63
2022-11-05T05:29:17.845Z,38.22
2022-11-05T05:34:31.328Z,30.23
2022-11-05T05:39:44.793Z,32.72
2022-11-05T05:44:59.008Z,45.17
2022-11-05T05:47:25.744Z,30.23
2022-11-05T05:49:52.553Z,30.73
2022-11-05T05:52:19.581Z,29.17
2022-11-05T05:54:46.447Z,31.55
2022-11-05T05:57:13.224Z,26.80
2022-11-05T05:59:39.934Z,28.80
2022-11-05T06:02:06.897Z,37.35
2022-11-05T06:04:33.749Z,34.20
2022-11-05T06:07:00.459Z,29.47
2022-11-05T06:09:27.262Z,32.70
2022-11-05T06:14:40.618Z,30.70
2022-11-05T06:17:07.716Z,28.90
2022-11-05T06:19:34.443Z,26.17
2022-11-05T06:22:01.181Z,26.45
2022-11-05T06:24:27.919Z,26.33
2022-11-05T06:26:54.662Z,25.17
2022-11-05T06:29:21.416Z,24.38
2022-11-05T06:31:48.161Z,30.40
2022-11-05T06:34:14.898Z,24.85
2022-11-05T06:36:41.616Z,31.25
2022-11-05T06:39:12.219Z,31.40
2022-11-05T06:42:03.898Z,24.10
2022-11-05T06:44:26.061Z,26.48
2022-11-05T06:46:52.784Z,23.83
2022-11-05T06:49:19.536Z,27.08
2022-11-05T06:51:46.344Z,32.55
2022-11-05T06:54:13.067Z,27.85
2022-11-05T06:56:39.780Z,26.50
2022-11-05T06:59:06.498Z,25.45
2022-11-05T07:01:33.391Z,24.48
2022-11-05T07:04:00.224Z,21.60
2022-11-05T07:06:27.594Z,22.40
2022-11-05T07:08:54.459Z,21.20
2022-11-05T07:11:21.169Z,21.73
2022-11-05T07:13:09.593Z,0
2022-11-05T07:13:47.937Z,28.33
2022-11-05T07:16:14.675Z,21.80
2022-11-05T07:18:41.387Z,23.58
2022-11-05T07:21:08.137Z,18.67
2022-11-05T07:23:34.880Z,21.10
2022-11-05T07:26:01.634Z,20.35
2022-11-05T07:28:28.390Z,18.15
2022-11-05T07:30:55.122Z,18.58
2022-11-05T07:36:08.926Z,19.95
2022-11-05T07:41:22.349Z,16.67
2022-11-05T07:46:15.878Z,25.02
2022-11-05T07:48:42.588Z,13.07
2022-11-05T07:53:55.945Z,13.98
2022-11-05T07:56:22.837Z,14.65
2022-11-05T07:58:49.678Z,13.23
2022-11-05T08:01:16.655Z,13.05
2022-11-05T08:03:43.652Z,15.02
2022-11-05T08:06:10.399Z,14.80
2022-11-05T08:08:37.151Z,14.98
2022-11-05T08:11:09.637Z,15.05
2022-11-05T08:13:37.105Z,13.75
2022-11-05T08:16:04.884Z,10.68
2022-11-05T08:18:32.488Z,11.95
2022-11-05T08:21:00.646Z,13.73
2022-11-05T08:23:29.078Z,11.02
2022-11-05T08:28:43.760Z,14.05
2022-11-05T08:31:10.552Z,12.20
2022-11-05T08:33:37.322Z,12.25
2022-11-05T08:36:05.411Z,12.40
2022-11-05T08:38:32.186Z,10.52
2022-11-05T08:40:58.951Z,13.65
2022-11-05T08:43:25.754Z,9.73
2022-11-05T08:45:52.512Z,14.43
2022-11-05T08:48:19.615Z,11.70
2022-11-05T08:50:48.184Z,9.52
2022-11-05T08:53:15.466Z,12.15
2022-11-05T08:55:42.777Z,12.00
2022-11-05T08:58:14.440Z,10.20
2022-11-05T09:03:10.137Z,10.20
2022-11-05T09:05:38.807Z,11.20
2022-11-05T09:08:13.454Z,9.90
2022-11-05T09:10:41.466Z,10.98
2022-11-05T09:13:13.096Z,11.23
2022-11-05T09:15:43.616Z,11.35
2022-11-05T09:18:13.584Z,11.90
2022-11-05T09:20:40.673Z,9.15
2022-11-05T09:23:08.069Z,10.73
2022-11-05T09:25:35.170Z,9.43
2022-11-05T09:28:16.517Z,12.85
2022-11-05T09:30:49.080Z,10.30
2022-11-05T09:33:18.011Z,12.40
2022-11-05T09:38:33.598Z,11.70
2022-11-05T09:41:07.510Z,10.80
2022-11-05T09:43:40.207Z,8.75
2022-11-05T09:49:10.709Z,9.00
2022-11-05T09:51:39.535Z,9.80
2022-11-05T09:54:06.335Z,10.70
2022-11-05T09:56:37.118Z,12.05
2022-11-05T09:59:13.158Z,10.57
2022-11-05T10:01:41.273Z,13.18
2022-11-05T10:07:05.697Z,8.52
2022-11-05T10:09:49.545Z,7.53
2022-11-05T10:12:30.268Z,8.05
2022-11-05T10:15:19.462Z,10.52
2022-11-05T10:20:43.668Z,10.32
2022-11-05T10:26:10.439Z,9.48
2022-11-05T10:31:24.172Z,9.02
2022-11-05T10:33:59.761Z,11.50
2022-11-05T10:36:29.596Z,9.98
2022-11-05T10:39:11.322Z,8.95
2022-11-05T10:41:56.706Z,6.50
2022-11-05T10:50:26.017Z,9.18
2022-11-05T10:54:03.802Z,0
2022-11-05T10:55:47.195Z,10.63
2022-11-05T11:01:12.917Z,12.23
2022-11-05T11:04:03.806Z,8.40
2022-11-05T11:06:33.600Z,7.70
2022-11-05T11:09:03.815Z,8.80
2022-11-05T11:11:32.658Z,9.30
2022-11-05T11:14:07.006Z,8.02
2022-11-05T11:16:39.988Z,9.23
2022-11-05T11:22:18.966Z,8.70
2022-11-05T11:24:51.514Z,9.13
2022-11-05T11:27:26.054Z,13.80
2022-11-05T11:32:48.313Z,14.00
2022-11-05T11:35:25.288Z,8.00
2022-11-05T11:37:53.884Z,12.73
2022-11-05T11:40:21.997Z,10.75
2022-11-05T11:42:56.352Z,9.25
2022-11-05T11:45:33.675Z,8.52
2022-11-05T11:48:06.456Z,6.97
2022-11-05T11:50:42.778Z,7.53
2022-11-05T11:53:21.540Z,7.88
2022-11-05T11:56:13.945Z,10.70
2022-11-05T11:58:46.644Z,8.00
2022-11-05T12:00:11.964Z,0
2022-11-05T12:01:25.676Z,8.13
2022-11-05T12:04:04.481Z,9.10
2022-11-05T12:09:07.737Z,0
2022-11-05T12:09:12.875Z,11.52
2022-11-05T12:12:01.709Z,8.00
2022-11-05T12:14:34.500Z,8.90
2022-11-05T12:20:29.369Z,8.75
2022-11-05T12:21:55.746Z,0
2022-11-05T12:23:31.463Z,7.50
2022-11-05T12:26:18.041Z,8.18
2022-11-05T12:29:16.483Z,7.90
2022-11-05T12:32:02.912Z,8.25
2022-11-05T12:35:04.529Z,10.63
2022-11-05T12:35:59.059Z,0
2022-11-05T12:38:01.078Z,7.35
2022-11-05T12:40:39.501Z,11.00
2022-11-05T12:43:19.437Z,8.43
2022-11-05T12:45:57.499Z,10.27
2022-11-05T12:51:38.707Z,12.48
2022-11-05T12:54:43.579Z,7.75
2022-11-05T12:57:13.543Z,7.57
2022-11-05T12:59:47.893Z,8.68
2022-11-05T13:02:37.423Z,9.87
2022-11-05T13:05:06.297Z,9.98
2022-11-05T13:10:58.263Z,7.82
2022-11-05T13:13:39.752Z,8.25
2022-11-05T13:16:20.338Z,8.82
2022-11-05T13:18:53.814Z,7.15
2022-11-05T13:21:23.073Z,7.68
2022-11-05T13:23:53.379Z,9.57
2022-11-05T13:26:31.480Z,7.07
2022-11-05T13:29:10.389Z,10.13
2022-11-05T13:31:43.783Z,7.50
2022-11-05T13:34:12.376Z,9.35
2022-11-05T13:37:01.695Z,6.07
2022-11-05T13:39:53.597Z,6.70
2022-11-05T13:42:43.801Z,9.57
2022-11-05T13:45:50.538Z,7.55
2022-11-05T13:48:45.147Z,8.97
2022-11-05T13:51:37.662Z,5.43
2022-11-05T13:54:36.709Z,7.40
2022-11-05T13:57:51.671Z,8.25
2022-11-05T14:03:18.998Z,7.93
2022-11-05T14:05:56.028Z,6.50
2022-11-05T14:08:27.507Z,7.60
2022-11-05T14:13:54.662Z,8.30
2022-11-05T14:16:26.781Z,7.18
2022-11-05T14:19:18.461Z,6.65
2022-11-05T14:21:47.194Z,7.60
2022-11-05T14:24:22.751Z,6.53
2022-11-05T14:27:01.831Z,8.47
2022-11-05T14:29:48.214Z,7.60
2022-11-05T14:32:11.852Z,0
2022-11-05T14:35:34.009Z,6.30
2022-11-05T14:38:00.848Z,10.75
2022-11-05T14:43:31.848Z,6.93
2022-11-05T14:48:53.826Z,9.60
2022-11-05T14:51:32.566Z,6.60
2022-11-05T14:54:19.803Z,9.65
2022-11-05T14:56:51.809Z,7.72
2022-11-05T14:59:24.464Z,10.18
2022-11-05T15:04:41.646Z,8.68
2022-11-05T15:09:41.021Z,7.85
2022-11-05T15:12:34.385Z,7.78
2022-11-05T15:15:22.797Z,7.50
2022-11-05T15:18:03.562Z,8.35
2022-11-05T15:23:40.958Z,7.07
2022-11-05T15:26:12.450Z,8.80
2022-11-05T15:28:51.700Z,13.35
2022-11-05T15:34:25.927Z,13.50
2022-11-05T15:37:20.154Z,6.80
2022-11-05T15:42:35.600Z,10.45
2022-11-05T15:47:48.980Z,14.80
2022-11-05T15:50:16.246Z,12.57
2022-11-05T15:52:51.317Z,12.85
2022-11-05T15:54:34.736Z,0
2022-11-05T15:55:20.124Z,8.05
2022-11-05T15:57:51.955Z,8.82
2022-11-05T15:57:53.191Z,0
2022-11-05T16:00:30.565Z,8.70
2022-11-05T16:03:04.882Z,9.57
2022-11-05T16:05:35.168Z,9.05
2022-11-05T16:08:03.162Z,11.30
2022-11-05T16:13:40.195Z,8.57
2022-11-05T16:16:25.043Z,8.33
2022-11-05T16:18:52.088Z,8.43
2022-11-05T16:21:20.994Z,10.20
2022-11-05T16:24:00.515Z,6.88
2022-11-05T16:27:01.769Z,8.55
2022-11-05T16:27:05.503Z,0
2022-11-05T16:29:30.463Z,7.10
2022-11-05T16:31:59.264Z,8.65
2022-11-05T16:34:31.428Z,6.70
2022-11-05T16:36:59.671Z,7.90
2022-11-05T16:39:27.059Z,7.57
2022-11-05T16:41:53.878Z,8.23
2022-11-05T16:47:08.704Z,6.30
2022-11-05T16:52:22.296Z,8.00
2022-11-05T16:57:36.347Z,7.05
2022-11-05T17:02:53.053Z,7.90
2022-11-05T17:05:30.157Z,7.25
2022-11-05T17:07:57.750Z,6.60
2022-11-05T17:10:25.841Z,7.55
2022-11-05T17:12:53.365Z,7.53
2022-11-05T17:15:24.772Z,10.00
2022-11-05T17:17:52.708Z,15.95
2022-11-05T17:20:39.447Z,13.30
2022-11-05T17:23:07.418Z,15.43
2022-11-05T17:25:34.794Z,10.63
2022-11-05T17:28:02.388Z,9.05
2022-11-05T17:30:29.193Z,9.23
2022-11-05T17:32:56.073Z,9.07
2022-11-05T17:35:24.231Z,8.57
2022-11-05T17:37:51.530Z,8.10
2022-11-05T17:40:21.308Z,9.18
2022-11-05T17:42:48.915Z,7.10
2022-11-05T17:45:15.942Z,8.80
2022-11-05T17:47:42.827Z,9.77
2022-11-05T17:50:12.422Z,7.90
2022-11-05T17:52:39.159Z,9.85
2022-11-05T17:57:54.264Z,7.43
2022-11-05T18:03:12.009Z,25.92
2022-11-05T18:05:40.063Z,11.05
2022-11-05T18:08:08.133Z,10.57
2022-11-05T18:10:38.900Z,10.02
2022-11-05T18:13:06.509Z,12.20
2022-11-05T18:15:33.662Z,13.07
2022-11-05T18:18:00.447Z,11.68
2022-11-05T18:20:27.302Z,12.52
2022-11-05T18:22:54.323Z,12.20
2022-11-05T18:25:21.289Z,12.40
2022-11-05T18:27:48.337Z,12.13
2022-11-05T18:30:15.076Z,13.57
2022-11-05T18:32:43.389Z,14.13
2022-11-05T18:35:10.168Z,18.02
2022-11-05T18:37:38.676Z,23.85
2022-11-05T18:40:06.729Z,17.77
2022-11-05T18:42:33.627Z,12.98
2022-11-05T18:45:00.439Z,13.60
2022-11-05T18:47:06.462Z,0
2022-11-05T18:47:27.465Z,13.85
2022-11-05T18:49:54.186Z,13.40
2022-11-05T18:52:20.906Z,14.57
2022-11-05T18:54:47.711Z,13.52
2022-11-05T18:57:14.649Z,11.43
2022-11-05T18:59:41.486Z,13.55
2022-11-05T19:02:10.857Z,15.10
2022-11-05T19:04:38.442Z,11.55
2022-11-05T19:05:34.549Z,0
2022-11-05T19:07:05.987Z,13.05
2022-11-05T19:09:36.437Z,13.73
2022-11-05T19:12:04.467Z,13.90
2022-11-05T19:14:31.599Z,14.18
2022-11-05T19:16:59.400Z,12.90
2022-11-05T19:22:13.310Z,12.10
2022-11-05T19:27:26.816Z,16.57
2022-11-05T19:32:40.197Z,11.10
2022-11-05T19:37:53.856Z,14.60
2022-11-05T19:40:21.046Z,16.40
2022-11-05T19:42:48.000Z,14.03
2022-11-05T19:45:38.756Z,14.70
2022-11-05T19:48:01.544Z,15.85
2022-11-05T19:50:28.276Z,13.15
2022-11-05T19:52:55.053Z,12.80
2022-11-05T19:58:08.809Z,14.32
2022-11-05T20:03:22.847Z,12.02
2022-11-05T20:08:16.607Z,10.38
2022-11-05T20:09:28.938Z,0
2022-11-05T20:10:43.387Z,12.73
2022-11-05T20:13:13.136Z,11.30
2022-11-05T20:15:42.334Z,13.52
2022-11-05T20:18:09.273Z,14.15
2022-11-05T20:20:36.191Z,14.87
2022-11-05T20:23:02.919Z,12.65
2022-11-05T20:25:29.630Z,10.13
2022-11-05T20:27:57.450Z,12.80
2022-11-05T20:29:36.587Z,0
2022-11-05T20:30:24.188Z,11.15
2022-11-05T20:32:57.821Z,16.57
2022-11-05T20:35:24.651Z,10.90
2022-11-05T20:37:54.130Z,13.93
2022-11-05T20:40:21.083Z,13.23
2022-11-05T20:42:47.815Z,13.02
2022-11-05T20:45:14.553Z,12.05
2022-11-05T20:47:41.293Z,13.00
2022-11-05T20:50:08.800Z,10.95
2022-11-05T20:52:35.582Z,10.57
2022-11-05T20:55:02.457Z,12.35
2022-11-05T20:57:29.262Z,10.50
2022-11-05T20:59:56.017Z,11.40
2022-11-05T21:05:09.522Z,14.05
2022-11-05T21:07:36.289Z,12.40
2022-11-05T21:10:03.098Z,11.27
2022-11-05T21:12:29.803Z,11.20
2022-11-05T21:14:56.574Z,12.32
2022-11-05T21:16:18.819Z,0
2022-11-05T21:20:10.142Z,10.77
2022-11-05T21:21:43.042Z,0
2022-11-05T21:22:36.876Z,15.30
2022-11-05T21:25:04.192Z,10.05
2022-11-05T21:27:30.994Z,12.60
2022-11-05T21:29:57.719Z,12.17
2022-11-05T21:32:24.458Z,10.43
2022-11-05T21:34:51.195Z,10.23
2022-11-05T21:37:17.991Z,11.40
2022-11-05T21:42:31.382Z,11.00
2022-11-05T21:45:00.561Z,13.63
2022-11-05T21:47:28.204Z,9.88
2022-11-05T21:49:54.935Z,12.27
2022-11-05T21:52:21.687Z,14.65
2022-11-05T21:54:48.497Z,19.30
2022-11-05T21:57:16.946Z,16.83
2022-11-05T21:59:43.722Z,15.70
2022-11-05T22:02:13.051Z,9.30
2022-11-05T22:04:42.115Z,10.88
2022-11-05T22:07:10.976Z,13.32
2022-11-05T22:09:37.844Z,11.32
2022-11-05T22:12:05.862Z,11.63
2022-11-05T22:14:32.697Z,11.38
2022-11-05T22:16:59.885Z,10.30
2022-11-05T22:19:27.062Z,10.70
2022-11-05T22:21:54.110Z,9.70
2022-11-05T22:23:12.920Z,0
2022-11-05T22:27:12.583Z,10.05
2022-11-05T22:32:25.938Z,11.00
2022-11-05T22:37:39.724Z,8.50
2022-11-05T22:42:53.614Z,12.00
2022-11-05T22:45:20.350Z,11.88
2022-11-05T22:47:47.052Z,11.05
2022-11-05T22:50:13.798Z,9.55
2022-11-05T22:52:40.567Z,9.85
2022-11-05T22:55:07.564Z,10.15
2022-11-05T22:57:34.312Z,10.50
2022-11-05T23:00:01.038Z,10.85
2022-11-05T23:02:27.893Z,9.65
2022-11-05T23:04:54.741Z,14.30
2022-11-05T23:07:27.081Z,17.35
2022-11-05T23:09:54.614Z,12.43
2022-11-05T23:12:33.372Z,10.35
2022-11-05T23:15:01.760Z,10.80
2022-11-05T23:17:28.788Z,10.18
2022-11-05T23:19:55.560Z,11.82
2022-11-05T23:22:30.348Z,9.38
2022-11-05T23:24:57.282Z,7.88
2022-11-05T23:27:24.381Z,8.30
2022-11-05T23:29:51.113Z,7.72
2022-11-05T23:32:17.815Z,11.00
2022-11-05T23:34:44.599Z,8.10
2022-11-05T23:37:11.348Z,8.02
2022-11-05T23:39:42.367Z,8.95
2022-11-05T23:42:10.426Z,9.95
2022-11-05T23:44:37.152Z,8.40
2022-11-05T23:47:03.941Z,10.10
2022-11-05T23:49:30.918Z,11.90
2022-11-05T23:51:57.655Z,9.40
2022-11-05T23:54:24.405Z,6.47
2022-11-05T23:56:51.155Z,7.85
2022-11-05T23:59:17.872Z,7.20
